Terminal Aerodrome Forecast
Issued by NWS Cleveland, OH

Home | Current Version | Previous Version | Text Only | Print | Product List | Glossary Off
Versions: 1 2 3 4 5 6 7 8 9 10 11 12 13

000
FTUS41 KCLE 220521
TAFCAK
TAF
KCAK 220521Z 2206/2306 VRB03KT P6SM SCT070 BKN150
     FM220900 VRB03KT 6SM BR FEW015 BKN150
      TEMPO 2210/2213 3SM BR BKN015
     FM221300 34008KT P6SM SCT025 BKN100
     FM221700 35012G20KT P6SM SCT025 BKN035
     FM230200 35005KT P6SM SCT035=

USA.gov is the U.S. government's official web portal to all federal, state and local government web resources and services.